sensor_id;sensor_type;location;lat;lon;timestamp;temperature;humidity
67557;DHT22;54387;53.526;49.300;2023-07-29T00:00:04;24.90;50.10
67557;DHT22;54387;53.526;49.300;2023-07-29T00:02:31;24.80;50.10
67557;DHT22;54387;53.526;49.300;2023-07-29T00:04:58;24.80;50.20
67557;DHT22;54387;53.526;49.300;2023-07-29T00:07:25;24.80;50.30
67557;DHT22;54387;53.526;49.300;2023-07-29T00:09:51;24.80;50.40
67557;DHT22;54387;53.526;49.300;2023-07-29T00:12:18;24.70;50.40
67557;DHT22;54387;53.526;49.300;2023-07-29T00:14:45;24.70;50.40
67557;DHT22;54387;53.526;49.300;2023-07-29T00:17:12;24.70;50.50
67557;DHT22;54387;53.526;49.300;2023-07-29T00:19:38;24.70;50.60
67557;DHT22;54387;53.526;49.300;2023-07-29T00:22:05;24.70;50.70
67557;DHT22;54387;53.526;49.300;2023-07-29T00:24:31;24.70;50.70
67557;DHT22;54387;53.526;49.300;2023-07-29T00:26:58;24.60;50.70
67557;DHT22;54387;53.526;49.300;2023-07-29T00:29:24;24.70;51.00
67557;DHT22;54387;53.526;49.300;2023-07-29T00:31:50;24.60;50.90
67557;DHT22;54387;53.526;49.300;2023-07-29T00:34:17;24.60;51.00
67557;DHT22;54387;53.526;49.300;2023-07-29T00:36:46;24.60;51.10
67557;DHT22;54387;53.526;49.300;2023-07-29T00:39:12;24.60;51.30
67557;DHT22;54387;53.526;49.300;2023-07-29T00:41:39;24.50;51.30
67557;DHT22;54387;53.526;49.300;2023-07-29T00:44:05;24.50;51.30
67557;DHT22;54387;53.526;49.300;2023-07-29T00:46:34;24.50;51.50
67557;DHT22;54387;53.526;49.300;2023-07-29T00:49:00;24.50;51.50
67557;DHT22;54387;53.526;49.300;2023-07-29T00:51:27;24.50;51.40
67557;DHT22;54387;53.526;49.300;2023-07-29T00:53:53;24.40;51.30
67557;DHT22;54387;53.526;49.300;2023-07-29T00:56:20;24.50;51.20
67557;DHT22;54387;53.526;49.300;2023-07-29T00:58:46;24.50;51.10
67557;DHT22;54387;53.526;49.300;2023-07-29T01:01:12;24.50;51.00
67557;DHT22;54387;53.526;49.300;2023-07-29T01:03:39;24.50;50.90
67557;DHT22;54387;53.526;49.300;2023-07-29T01:06:18;24.60;50.90
67557;DHT22;54387;53.526;49.300;2023-07-29T01:09:01;24.50;50.80
67557;DHT22;54387;53.526;49.300;2023-07-29T01:14:06;24.60;50.80
67557;DHT22;54387;53.526;49.300;2023-07-29T01:16:41;24.50;50.60
67557;DHT22;54387;53.526;49.300;2023-07-29T01:21:59;24.60;50.40
67557;DHT22;54387;53.526;49.300;2023-07-29T01:24:26;24.60;50.30
67557;DHT22;54387;53.526;49.300;2023-07-29T01:26:52;24.60;50.30
67557;DHT22;54387;53.526;49.300;2023-07-29T01:29:19;24.60;50.10
67557;DHT22;54387;53.526;49.300;2023-07-29T01:31:47;24.60;50.10
67557;DHT22;54387;53.526;49.300;2023-07-29T01:34:26;24.60;50.10
67557;DHT22;54387;53.526;49.300;2023-07-29T01:36:57;24.60;50.10
67557;DHT22;54387;53.526;49.300;2023-07-29T01:39:25;24.70;50.10
67557;DHT22;54387;53.526;49.300;2023-07-29T01:41:55;24.70;50.00
67557;DHT22;54387;53.526;49.300;2023-07-29T01:44:22;24.70;50.00
67557;DHT22;54387;53.526;49.300;2023-07-29T01:46:49;24.70;49.90
67557;DHT22;54387;53.526;49.300;2023-07-29T01:49:16;24.70;49.90
67557;DHT22;54387;53.526;49.300;2023-07-29T01:51:42;24.70;49.80
67557;DHT22;54387;53.526;49.300;2023-07-29T01:54:09;24.70;49.90
67557;DHT22;54387;53.526;49.300;2023-07-29T01:56:36;24.80;49.90
67557;DHT22;54387;53.526;49.300;2023-07-29T01:59:03;24.80;49.90
67557;DHT22;54387;53.526;49.300;2023-07-29T02:01:29;24.80;49.90
67557;DHT22;54387;53.526;49.300;2023-07-29T02:03:57;24.80;50.00
67557;DHT22;54387;53.526;49.300;2023-07-29T02:06:23;24.80;50.20
67557;DHT22;54387;53.526;49.300;2023-07-29T02:08:51;24.90;50.50
67557;DHT22;54387;53.526;49.300;2023-07-29T02:11:17;24.90;50.30
67557;DHT22;54387;53.526;49.300;2023-07-29T02:13:46;24.90;50.40
67557;DHT22;54387;53.526;49.300;2023-07-29T02:16:13;24.90;50.40
67557;DHT22;54387;53.526;49.300;2023-07-29T02:18:40;24.90;50.40
67557;DHT22;54387;53.526;49.300;2023-07-29T02:21:07;24.90;50.60
67557;DHT22;54387;53.526;49.300;2023-07-29T02:23:33;24.90;50.60
67557;DHT22;54387;53.526;49.300;2023-07-29T02:26:00;25.00;50.60
67557;DHT22;54387;53.526;49.300;2023-07-29T02:28:26;25.00;50.70
67557;DHT22;54387;53.526;49.300;2023-07-29T02:31:25;25.10;50.80
67557;DHT22;54387;53.526;49.300;2023-07-29T02:33:52;25.10;50.70
67557;DHT22;54387;53.526;49.300;2023-07-29T02:36:18;25.10;51.80
67557;DHT22;54387;53.526;49.300;2023-07-29T02:38:45;25.10;51.10
67557;DHT22;54387;53.526;49.300;2023-07-29T02:41:12;25.10;51.00
67557;DHT22;54387;53.526;49.300;2023-07-29T02:43:39;25.20;51.10
67557;DHT22;54387;53.526;49.300;2023-07-29T02:46:07;25.20;51.40
67557;DHT22;54387;53.526;49.300;2023-07-29T02:48:33;25.20;51.10
67557;DHT22;54387;53.526;49.300;2023-07-29T02:50:59;25.30;51.30
67557;DHT22;54387;53.526;49.300;2023-07-29T02:53:26;25.40;51.20
67557;DHT22;54387;53.526;49.300;2023-07-29T02:55:52;25.40;51.20
67557;DHT22;54387;53.526;49.300;2023-07-29T02:58:20;25.50;51.20
67557;DHT22;54387;53.526;49.300;2023-07-29T03:00:47;25.50;51.10
67557;DHT22;54387;53.526;49.300;2023-07-29T03:03:14;25.50;50.60
67557;DHT22;54387;53.526;49.300;2023-07-29T03:05:41;25.60;50.40
67557;DHT22;54387;53.526;49.300;2023-07-29T03:08:07;25.60;50.00
67557;DHT22;54387;53.526;49.300;2023-07-29T03:10:35;25.70;49.80
67557;DHT22;54387;53.526;49.300;2023-07-29T03:13:02;25.80;49.40
67557;DHT22;54387;53.526;49.300;2023-07-29T03:15:29;25.90;49.50
67557;DHT22;54387;53.526;49.300;2023-07-29T03:17:55;26.00;49.40
67557;DHT22;54387;53.526;49.300;2023-07-29T03:20:22;26.00;49.20
67557;DHT22;54387;53.526;49.300;2023-07-29T03:22:48;26.10;49.30
67557;DHT22;54387;53.526;49.300;2023-07-29T03:25:14;26.10;49.20
67557;DHT22;54387;53.526;49.300;2023-07-29T03:27:41;26.20;49.00
67557;DHT22;54387;53.526;49.300;2023-07-29T03:30:08;26.30;48.80
67557;DHT22;54387;53.526;49.300;2023-07-29T03:32:34;26.30;48.70
67557;DHT22;54387;53.526;49.300;2023-07-29T03:35:01;26.40;48.70
67557;DHT22;54387;53.526;49.300;2023-07-29T03:37:27;26.50;48.40
67557;DHT22;54387;53.526;49.300;2023-07-29T03:39:54;26.50;48.20
67557;DHT22;54387;53.526;49.300;2023-07-29T03:42:20;26.60;47.90
67557;DHT22;54387;53.526;49.300;2023-07-29T03:44:47;26.70;47.60
67557;DHT22;54387;53.526;49.300;2023-07-29T03:47:13;26.80;47.20
67557;DHT22;54387;53.526;49.300;2023-07-29T03:49:39;26.90;47.10
67557;DHT22;54387;53.526;49.300;2023-07-29T03:52:06;26.90;46.60
67557;DHT22;54387;53.526;49.300;2023-07-29T03:54:32;27.00;46.30
67557;DHT22;54387;53.526;49.300;2023-07-29T03:56:59;27.10;46.10
67557;DHT22;54387;53.526;49.300;2023-07-29T03:59:25;27.10;46.00
67557;DHT22;54387;53.526;49.300;2023-07-29T04:01:52;27.20;45.80
67557;DHT22;54387;53.526;49.300;2023-07-29T04:04:18;27.30;45.60
67557;DHT22;54387;53.526;49.300;2023-07-29T04:06:44;27.40;45.50
67557;DHT22;54387;53.526;49.300;2023-07-29T04:09:11;27.40;45.30
67557;DHT22;54387;53.526;49.300;2023-07-29T04:11:38;27.50;45.10
67557;DHT22;54387;53.526;49.300;2023-07-29T04:14:04;27.60;44.90
67557;DHT22;54387;53.526;49.300;2023-07-29T04:16:31;27.70;44.60
67557;DHT22;54387;53.526;49.300;2023-07-29T04:18:58;27.70;44.40
67557;DHT22;54387;53.526;49.300;2023-07-29T04:21:24;27.80;44.50
67557;DHT22;54387;53.526;49.300;2023-07-29T04:23:51;27.90;44.40
67557;DHT22;54387;53.526;49.300;2023-07-29T04:26:17;27.90;44.20
67557;DHT22;54387;53.526;49.300;2023-07-29T04:28:44;28.00;44.30
67557;DHT22;54387;53.526;49.300;2023-07-29T04:31:10;28.10;44.40
67557;DHT22;54387;53.526;49.300;2023-07-29T04:33:37;28.20;44.40
67557;DHT22;54387;53.526;49.300;2023-07-29T04:36:03;28.20;43.90
67557;DHT22;54387;53.526;49.300;2023-07-29T04:38:32;28.30;44.00
67557;DHT22;54387;53.526;49.300;2023-07-29T04:40:59;28.40;43.80
67557;DHT22;54387;53.526;49.300;2023-07-29T04:43:30;28.50;43.40
67557;DHT22;54387;53.526;49.300;2023-07-29T04:45:56;28.60;43.20
67557;DHT22;54387;53.526;49.300;2023-07-29T04:48:23;28.60;43.10
67557;DHT22;54387;53.526;49.300;2023-07-29T04:50:50;28.70;42.90
67557;DHT22;54387;53.526;49.300;2023-07-29T04:53:16;28.80;42.80
67557;DHT22;54387;53.526;49.300;2023-07-29T04:55:43;28.80;42.60
67557;DHT22;54387;53.526;49.300;2023-07-29T04:58:10;28.90;42.60
67557;DHT22;54387;53.526;49.300;2023-07-29T05:00:36;29.00;42.50
67557;DHT22;54387;53.526;49.300;2023-07-29T05:03:03;29.00;41.80
67557;DHT22;54387;53.526;49.300;2023-07-29T05:05:29;29.10;41.80
67557;DHT22;54387;53.526;49.300;2023-07-29T05:07:56;29.10;41.50
67557;DHT22;54387;53.526;49.300;2023-07-29T05:10:22;29.20;41.60
67557;DHT22;54387;53.526;49.300;2023-07-29T05:12:49;29.30;41.50
67557;DHT22;54387;53.526;49.300;2023-07-29T05:15:15;29.30;41.50
67557;DHT22;54387;53.526;49.300;2023-07-29T05:17:42;29.40;41.10
67557;DHT22;54387;53.526;49.300;2023-07-29T05:20:09;29.40;40.90
67557;DHT22;54387;53.526;49.300;2023-07-29T05:22:35;29.50;40.90
67557;DHT22;54387;53.526;49.300;2023-07-29T05:25:01;29.50;40.40
67557;DHT22;54387;53.526;49.300;2023-07-29T05:27:28;29.60;40.30
67557;DHT22;54387;53.526;49.300;2023-07-29T05:29:54;29.60;40.00
67557;DHT22;54387;53.526;49.300;2023-07-29T05:32:21;29.60;39.60
67557;DHT22;54387;53.526;49.300;2023-07-29T05:34:50;29.60;39.50
67557;DHT22;54387;53.526;49.300;2023-07-29T05:37:16;29.60;39.60
67557;DHT22;54387;53.526;49.300;2023-07-29T05:39:43;29.60;39.70
67557;DHT22;54387;53.526;49.300;2023-07-29T05:42:09;29.60;39.80
67557;DHT22;54387;53.526;49.300;2023-07-29T05:44:36;29.80;40.10
67557;DHT22;54387;53.526;49.300;2023-07-29T05:47:02;29.80;39.90
67557;DHT22;54387;53.526;49.300;2023-07-29T05:49:29;29.90;40.00
67557;DHT22;54387;53.526;49.300;2023-07-29T05:51:55;30.00;39.90
67557;DHT22;54387;53.526;49.300;2023-07-29T05:54:22;30.00;39.60
67557;DHT22;54387;53.526;49.300;2023-07-29T05:56:49;30.20;39.30
67557;DHT22;54387;53.526;49.300;2023-07-29T05:59:15;30.30;38.60
67557;DHT22;54387;53.526;49.300;2023-07-29T06:01:41;30.40;38.30
67557;DHT22;54387;53.526;49.300;2023-07-29T06:04:08;30.40;37.90
67557;DHT22;54387;53.526;49.300;2023-07-29T06:06:34;30.50;39.00
67557;DHT22;54387;53.526;49.300;2023-07-29T06:09:01;30.60;37.60
67557;DHT22;54387;53.526;49.300;2023-07-29T06:11:27;30.70;37.20
67557;DHT22;54387;53.526;49.300;2023-07-29T06:13:54;30.90;36.90
67557;DHT22;54387;53.526;49.300;2023-07-29T06:16:20;30.90;36.30
67557;DHT22;54387;53.526;49.300;2023-07-29T06:18:46;31.00;36.00
67557;DHT22;54387;53.526;49.300;2023-07-29T06:21:13;31.20;36.20
67557;DHT22;54387;53.526;49.300;2023-07-29T06:23:43;31.20;36.20
67557;DHT22;54387;53.526;49.300;2023-07-29T06:26:09;31.40;36.10
67557;DHT22;54387;53.526;49.300;2023-07-29T06:28:37;31.40;35.70
67557;DHT22;54387;53.526;49.300;2023-07-29T06:31:03;31.60;35.50
67557;DHT22;54387;53.526;49.300;2023-07-29T06:33:30;31.60;35.20
67557;DHT22;54387;53.526;49.300;2023-07-29T06:35:56;31.80;35.10
67557;DHT22;54387;53.526;49.300;2023-07-29T06:38:23;31.80;34.60
67557;DHT22;54387;53.526;49.300;2023-07-29T06:40:49;32.00;35.80
67557;DHT22;54387;53.526;49.300;2023-07-29T06:43:16;32.00;34.10
67557;DHT22;54387;53.526;49.300;2023-07-29T06:45:42;32.10;33.90
67557;DHT22;54387;53.526;49.300;2023-07-29T06:48:09;32.30;33.60
67557;DHT22;54387;53.526;49.300;2023-07-29T06:50:35;32.40;33.40
67557;DHT22;54387;53.526;49.300;2023-07-29T06:53:02;32.50;33.20
67557;DHT22;54387;53.526;49.300;2023-07-29T06:55:29;32.60;33.10
67557;DHT22;54387;53.526;49.300;2023-07-29T06:57:55;32.70;32.90
67557;DHT22;54387;53.526;49.300;2023-07-29T07:00:22;32.90;32.60
67557;DHT22;54387;53.526;49.300;2023-07-29T07:02:48;33.20;31.80
67557;DHT22;54387;53.526;49.300;2023-07-29T07:05:14;33.40;31.40
67557;DHT22;54387;53.526;49.300;2023-07-29T07:07:41;33.50;31.20
67557;DHT22;54387;53.526;49.300;2023-07-29T07:10:08;33.60;31.40
67557;DHT22;54387;53.526;49.300;2023-07-29T07:12:35;33.60;31.60
67557;DHT22;54387;53.526;49.300;2023-07-29T07:15:01;33.70;31.30
67557;DHT22;54387;53.526;49.300;2023-07-29T07:17:28;33.70;31.30
67557;DHT22;54387;53.526;49.300;2023-07-29T07:19:54;33.70;31.60
67557;DHT22;54387;53.526;49.300;2023-07-29T07:22:21;33.70;31.30
67557;DHT22;54387;53.526;49.300;2023-07-29T07:24:47;33.70;31.10
67557;DHT22;54387;53.526;49.300;2023-07-29T07:27:14;33.70;31.10
67557;DHT22;54387;53.526;49.300;2023-07-29T07:29:40;33.70;30.80
67557;DHT22;54387;53.526;49.300;2023-07-29T07:32:09;33.60;30.40
67557;DHT22;54387;53.526;49.300;2023-07-29T07:34:35;33.60;30.70
67557;DHT22;54387;53.526;49.300;2023-07-29T07:37:02;33.60;30.80
67557;DHT22;54387;53.526;49.300;2023-07-29T07:39:31;33.70;30.60
67557;DHT22;54387;53.526;49.300;2023-07-29T07:41:57;33.70;30.60
67557;DHT22;54387;53.526;49.300;2023-07-29T07:44:24;33.70;30.60
67557;DHT22;54387;53.526;49.300;2023-07-29T07:46:52;33.70;30.60
67557;DHT22;54387;53.526;49.300;2023-07-29T07:49:19;33.80;30.70
67557;DHT22;54387;53.526;49.300;2023-07-29T07:51:46;33.80;30.80
67557;DHT22;54387;53.526;49.300;2023-07-29T07:54:12;33.80;30.60
67557;DHT22;54387;53.526;49.300;2023-07-29T07:56:39;33.80;30.60
67557;DHT22;54387;53.526;49.300;2023-07-29T07:59:05;33.90;30.30
67557;DHT22;54387;53.526;49.300;2023-07-29T08:01:36;33.90;30.70
67557;DHT22;54387;53.526;49.300;2023-07-29T08:04:03;33.90;30.30
67557;DHT22;54387;53.526;49.300;2023-07-29T08:06:30;34.00;30.50
67557;DHT22;54387;53.526;49.300;2023-07-29T08:08:57;34.00;30.40
67557;DHT22;54387;53.526;49.300;2023-07-29T08:11:24;34.00;30.30
67557;DHT22;54387;53.526;49.300;2023-07-29T08:13:51;34.00;30.40
67557;DHT22;54387;53.526;49.300;2023-07-29T08:16:17;34.00;30.60
67557;DHT22;54387;53.526;49.300;2023-07-29T08:18:44;34.10;30.70
67557;DHT22;54387;53.526;49.300;2023-07-29T08:21:10;34.10;30.50
67557;DHT22;54387;53.526;49.300;2023-07-29T08:23:37;34.10;30.70
67557;DHT22;54387;53.526;49.300;2023-07-29T08:26:04;34.20;30.50
67557;DHT22;54387;53.526;49.300;2023-07-29T08:28:35;34.20;30.40
67557;DHT22;54387;53.526;49.300;2023-07-29T08:31:02;34.30;30.40
67557;DHT22;54387;53.526;49.300;2023-07-29T08:33:29;34.30;30.50
67557;DHT22;54387;53.526;49.300;2023-07-29T08:35:56;34.30;30.20
67557;DHT22;54387;53.526;49.300;2023-07-29T08:38:22;34.40;30.00
67557;DHT22;54387;53.526;49.300;2023-07-29T08:43:21;34.50;30.00
67557;DHT22;54387;53.526;49.300;2023-07-29T08:45:49;34.60;30.00
67557;DHT22;54387;53.526;49.300;2023-07-29T08:48:21;34.60;29.90
67557;DHT22;54387;53.526;49.300;2023-07-29T08:50:50;34.70;29.70
67557;DHT22;54387;53.526;49.300;2023-07-29T08:53:18;34.80;29.90
67557;DHT22;54387;53.526;49.300;2023-07-29T08:55:45;34.80;29.70
67557;DHT22;54387;53.526;49.300;2023-07-29T08:58:12;34.90;29.70
67557;DHT22;54387;53.526;49.300;2023-07-29T09:00:39;35.00;29.50
67557;DHT22;54387;53.526;49.300;2023-07-29T09:03:06;35.10;29.70
67557;DHT22;54387;53.526;49.300;2023-07-29T09:05:33;35.20;29.80
67557;DHT22;54387;53.526;49.300;2023-07-29T09:08:02;35.30;29.50
67557;DHT22;54387;53.526;49.300;2023-07-29T09:10:29;35.40;29.70
67557;DHT22;54387;53.526;49.300;2023-07-29T09:12:56;35.60;29.60
67557;DHT22;54387;53.526;49.300;2023-07-29T09:15:29;35.80;29.40
67557;DHT22;54387;53.526;49.300;2023-07-29T09:17:57;36.00;29.20
67557;DHT22;54387;53.526;49.300;2023-07-29T09:20:27;36.10;28.90
67557;DHT22;54387;53.526;49.300;2023-07-29T09:22:56;36.30;28.90
67557;DHT22;54387;53.526;49.300;2023-07-29T09:25:26;36.60;28.70
67557;DHT22;54387;53.526;49.300;2023-07-29T09:27:57;36.90;28.70
67557;DHT22;54387;53.526;49.300;2023-07-29T09:30:25;37.10;28.40
67557;DHT22;54387;53.526;49.300;2023-07-29T09:32:56;37.60;28.20
67557;DHT22;54387;53.526;49.300;2023-07-29T09:35:24;38.20;27.90
67557;DHT22;54387;53.526;49.300;2023-07-29T09:37:51;38.90;27.40
67557;DHT22;54387;53.526;49.300;2023-07-29T09:40:19;39.70;26.60
67557;DHT22;54387;53.526;49.300;2023-07-29T09:42:55;40.40;26.10
67557;DHT22;54387;53.526;49.300;2023-07-29T09:45:26;41.10;25.40
67557;DHT22;54387;53.526;49.300;2023-07-29T09:47:54;41.80;25.00
67557;DHT22;54387;53.526;49.300;2023-07-29T09:50:26;42.40;24.80
67557;DHT22;54387;53.526;49.300;2023-07-29T09:52:54;42.90;23.60
67557;DHT22;54387;53.526;49.300;2023-07-29T09:55:22;42.90;23.30
67557;DHT22;54387;53.526;49.300;2023-07-29T09:58:00;43.10;23.30
67557;DHT22;54387;53.526;49.300;2023-07-29T10:00:29;43.00;23.40
67557;DHT22;54387;53.526;49.300;2023-07-29T10:02:56;43.00;23.40
67557;DHT22;54387;53.526;49.300;2023-07-29T10:05:26;43.40;23.60
67557;DHT22;54387;53.526;49.300;2023-07-29T10:07:54;43.80;23.50
67557;DHT22;54387;53.526;49.300;2023-07-29T10:10:21;43.80;23.40
67557;DHT22;54387;53.526;49.300;2023-07-29T10:12:47;43.60;23.10
67557;DHT22;54387;53.526;49.300;2023-07-29T10:15:14;43.50;23.20
67557;DHT22;54387;53.526;49.300;2023-07-29T10:17:40;43.60;23.20
67557;DHT22;54387;53.526;49.300;2023-07-29T10:20:09;43.90;23.20
67557;DHT22;54387;53.526;49.300;2023-07-29T10:22:41;44.00;22.80
67557;DHT22;54387;53.526;49.300;2023-07-29T10:25:21;43.80;22.70
67557;DHT22;54387;53.526;49.300;2023-07-29T10:27:56;43.50;22.80
67557;DHT22;54387;53.526;49.300;2023-07-29T10:30:25;43.70;22.90
67557;DHT22;54387;53.526;49.300;2023-07-29T10:32:53;43.90;22.50
67557;DHT22;54387;53.526;49.300;2023-07-29T10:35:20;44.40;21.90
67557;DHT22;54387;53.526;49.300;2023-07-29T10:37:47;45.30;21.70
67557;DHT22;54387;53.526;49.300;2023-07-29T10:40:17;46.40;21.40
67557;DHT22;54387;53.526;49.300;2023-07-29T10:43:01;47.50;20.90
67557;DHT22;54387;53.526;49.300;2023-07-29T10:45:40;48.40;20.40
67557;DHT22;54387;53.526;49.300;2023-07-29T10:54:10;48.30;20.30
67557;DHT22;54387;53.526;49.300;2023-07-29T10:56:42;48.30;20.30
67557;DHT22;54387;53.526;49.300;2023-07-29T11:01:41;48.50;20.20
67557;DHT22;54387;53.526;49.300;2023-07-29T11:12:38;48.80;20.20
67557;DHT22;54387;53.526;49.300;2023-07-29T11:17:43;48.80;20.50
67557;DHT22;54387;53.526;49.300;2023-07-29T11:20:11;48.50;20.30
67557;DHT22;54387;53.526;49.300;2023-07-29T11:22:38;48.20;20.10
67557;DHT22;54387;53.526;49.300;2023-07-29T11:25:07;47.80;20.30
67557;DHT22;54387;53.526;49.300;2023-07-29T11:27:35;47.30;20.50
67557;DHT22;54387;53.526;49.300;2023-07-29T11:30:07;46.80;20.50
67557;DHT22;54387;53.526;49.300;2023-07-29T11:32:35;46.30;20.60
67557;DHT22;54387;53.526;49.300;2023-07-29T11:35:10;45.60;20.80
67557;DHT22;54387;53.526;49.300;2023-07-29T11:37:38;44.90;21.10
67557;DHT22;54387;53.526;49.300;2023-07-29T11:40:05;44.20;21.20
67557;DHT22;54387;53.526;49.300;2023-07-29T11:42:34;43.60;21.50
67557;DHT22;54387;53.526;49.300;2023-07-29T11:45:04;43.00;21.70
67557;DHT22;54387;53.526;49.300;2023-07-29T11:47:34;42.30;22.10
67557;DHT22;54387;53.526;49.300;2023-07-29T11:50:04;41.60;22.60
67557;DHT22;54387;53.526;49.300;2023-07-29T11:52:35;40.90;23.00
67557;DHT22;54387;53.526;49.300;2023-07-29T11:55:03;40.30;23.50
67557;DHT22;54387;53.526;49.300;2023-07-29T11:57:31;39.70;23.80
67557;DHT22;54387;53.526;49.300;2023-07-29T12:00:02;39.00;24.10
67557;DHT22;54387;53.526;49.300;2023-07-29T12:02:30;38.40;24.50
67557;DHT22;54387;53.526;49.300;2023-07-29T12:04:57;37.90;25.00
67557;DHT22;54387;53.526;49.300;2023-07-29T12:07:25;37.30;26.20
67557;DHT22;54387;53.526;49.300;2023-07-29T12:09:52;36.40;28.40
67557;DHT22;54387;53.526;49.300;2023-07-29T12:12:19;35.20;30.20
67557;DHT22;54387;53.526;49.300;2023-07-29T12:14:48;34.10;32.30
67557;DHT22;54387;53.526;49.300;2023-07-29T12:17:15;32.80;35.80
67557;DHT22;54387;53.526;49.300;2023-07-29T12:19:42;31.30;41.30
67557;DHT22;54387;53.526;49.300;2023-07-29T12:22:10;29.40;47.60
67557;DHT22;54387;53.526;49.300;2023-07-29T12:24:39;27.40;52.10
67557;DHT22;54387;53.526;49.300;2023-07-29T12:27:09;25.80;56.00
67557;DHT22;54387;53.526;49.300;2023-07-29T12:29:40;24.60;58.60
67557;DHT22;54387;53.526;49.300;2023-07-29T12:32:08;23.80;60.40
67557;DHT22;54387;53.526;49.300;2023-07-29T12:34:36;23.30;61.40
67557;DHT22;54387;53.526;49.300;2023-07-29T12:37:04;23.00;62.60
67557;DHT22;54387;53.526;49.300;2023-07-29T12:39:38;22.60;63.60
67557;DHT22;54387;53.526;49.300;2023-07-29T12:42:06;22.40;64.20
67557;DHT22;54387;53.526;49.300;2023-07-29T12:44:34;22.30;64.70
67557;DHT22;54387;53.526;49.300;2023-07-29T12:47:02;22.10;65.60
67557;DHT22;54387;53.526;49.300;2023-07-29T12:49:29;22.00;65.90
67557;DHT22;54387;53.526;49.300;2023-07-29T12:51:56;21.90;66.30
67557;DHT22;54387;53.526;49.300;2023-07-29T12:54:23;21.90;67.40
67557;DHT22;54387;53.526;49.300;2023-07-29T12:56:50;21.90;67.30
67557;DHT22;54387;53.526;49.300;2023-07-29T12:59:16;21.80;67.10
67557;DHT22;54387;53.526;49.300;2023-07-29T13:01:42;21.80;67.00
67557;DHT22;54387;53.526;49.300;2023-07-29T13:04:10;21.80;67.10
67557;DHT22;54387;53.526;49.300;2023-07-29T13:06:36;21.80;67.30
67557;DHT22;54387;53.526;49.300;2023-07-29T13:09:03;21.90;67.40
67557;DHT22;54387;53.526;49.300;2023-07-29T13:11:31;22.10;67.40
67557;DHT22;54387;53.526;49.300;2023-07-29T13:14:00;22.20;67.50
67557;DHT22;54387;53.526;49.300;2023-07-29T13:16:28;22.40;67.30
67557;DHT22;54387;53.526;49.300;2023-07-29T13:18:55;22.50;66.60
67557;DHT22;54387;53.526;49.300;2023-07-29T13:21:22;22.70;65.90
67557;DHT22;54387;53.526;49.300;2023-07-29T13:23:48;23.00;65.00
67557;DHT22;54387;53.526;49.300;2023-07-29T13:26:15;23.30;64.40
67557;DHT22;54387;53.526;49.300;2023-07-29T13:28:41;23.50;64.00
67557;DHT22;54387;53.526;49.300;2023-07-29T13:31:10;23.90;63.10
67557;DHT22;54387;53.526;49.300;2023-07-29T13:33:37;24.20;62.40
67557;DHT22;54387;53.526;49.300;2023-07-29T13:36:03;24.40;61.90
67557;DHT22;54387;53.526;49.300;2023-07-29T13:38:30;24.70;60.80
67557;DHT22;54387;53.526;49.300;2023-07-29T13:40:57;24.80;60.50
67557;DHT22;54387;53.526;49.300;2023-07-29T13:43:23;24.90;60.80
67557;DHT22;54387;53.526;49.300;2023-07-29T13:45:50;25.00;60.60
67557;DHT22;54387;53.526;49.300;2023-07-29T13:48:16;25.00;60.00
67557;DHT22;54387;53.526;49.300;2023-07-29T13:50:42;24.90;60.10
67557;DHT22;54387;53.526;49.300;2023-07-29T13:53:10;24.90;59.90
67557;DHT22;54387;53.526;49.300;2023-07-29T13:55:36;24.80;59.10
67557;DHT22;54387;53.526;49.300;2023-07-29T13:58:03;24.70;59.00
67557;DHT22;54387;53.526;49.300;2023-07-29T14:00:29;24.70;59.20
67557;DHT22;54387;53.526;49.300;2023-07-29T14:02:56;24.60;59.00
67557;DHT22;54387;53.526;49.300;2023-07-29T14:05:22;24.50;58.80
67557;DHT22;54387;53.526;49.300;2023-07-29T14:07:48;24.50;59.50
67557;DHT22;54387;53.526;49.300;2023-07-29T14:10:15;24.40;59.50
67557;DHT22;54387;53.526;49.300;2023-07-29T14:12:41;24.40;60.00
67557;DHT22;54387;53.526;49.300;2023-07-29T14:15:08;24.40;60.20
67557;DHT22;54387;53.526;49.300;2023-07-29T14:17:34;24.30;60.70
67557;DHT22;54387;53.526;49.300;2023-07-29T14:20:01;24.30;61.00
67557;DHT22;54387;53.526;49.300;2023-07-29T14:22:29;24.20;60.80
67557;DHT22;54387;53.526;49.300;2023-07-29T14:24:55;24.20;60.80
67557;DHT22;54387;53.526;49.300;2023-07-29T14:27:23;24.20;60.70
67557;DHT22;54387;53.526;49.300;2023-07-29T14:29:49;24.20;60.50
67557;DHT22;54387;53.526;49.300;2023-07-29T14:32:15;24.20;60.70
67557;DHT22;54387;53.526;49.300;2023-07-29T14:34:42;24.30;60.90
67557;DHT22;54387;53.526;49.300;2023-07-29T14:37:09;24.30;60.80
67557;DHT22;54387;53.526;49.300;2023-07-29T14:39:35;24.40;60.70
67557;DHT22;54387;53.526;49.300;2023-07-29T14:42:01;24.30;60.50
67557;DHT22;54387;53.526;49.300;2023-07-29T14:44:28;24.40;60.40
67557;DHT22;54387;53.526;49.300;2023-07-29T14:46:54;24.40;60.50
67557;DHT22;54387;53.526;49.300;2023-07-29T14:49:21;24.40;60.50
67557;DHT22;54387;53.526;49.300;2023-07-29T14:51:48;24.40;60.30
67557;DHT22;54387;53.526;49.300;2023-07-29T14:54:14;24.40;60.00
67557;DHT22;54387;53.526;49.300;2023-07-29T14:56:41;24.50;59.90
67557;DHT22;54387;53.526;49.300;2023-07-29T14:59:07;24.50;59.20
67557;DHT22;54387;53.526;49.300;2023-07-29T15:01:33;24.60;58.60
67557;DHT22;54387;53.526;49.300;2023-07-29T15:04:00;24.70;57.70
67557;DHT22;54387;53.526;49.300;2023-07-29T15:06:26;24.70;57.10
67557;DHT22;54387;53.526;49.300;2023-07-29T15:08:53;24.80;56.00
67557;DHT22;54387;53.526;49.300;2023-07-29T15:11:19;24.90;56.30
67557;DHT22;54387;53.526;49.300;2023-07-29T15:13:45;24.90;56.60
67557;DHT22;54387;53.526;49.300;2023-07-29T15:16:12;25.00;55.50
67557;DHT22;54387;53.526;49.300;2023-07-29T15:18:38;25.10;55.60
67557;DHT22;54387;53.526;49.300;2023-07-29T15:21:04;25.10;54.80
67557;DHT22;54387;53.526;49.300;2023-07-29T15:23:31;25.10;54.60
67557;DHT22;54387;53.526;49.300;2023-07-29T15:25:57;25.20;55.20
67557;DHT22;54387;53.526;49.300;2023-07-29T15:28:25;25.20;54.70
67557;DHT22;54387;53.526;49.300;2023-07-29T15:30:52;25.20;54.80
67557;DHT22;54387;53.526;49.300;2023-07-29T15:33:20;25.20;55.50
67557;DHT22;54387;53.526;49.300;2023-07-29T15:35:46;25.20;54.30
67557;DHT22;54387;53.526;49.300;2023-07-29T15:38:13;25.20;54.00
67557;DHT22;54387;53.526;49.300;2023-07-29T15:40:39;25.20;54.20
67557;DHT22;54387;53.526;49.300;2023-07-29T15:43:06;25.20;54.60